| time (UTC) | temp F | wind direction | speed MPH | gust MPH | rain 1hr in | rain 24hr in | rain mn in | humidity % | barometer mb |
| 20260508053036 | 54 | 340 | 1.0 | 6.0 | 0.00 | 0.00 | 0.00 | 21 | 1018.7 |
| 20260508051541 | 54 | 0 | 1.0 | 5.0 | 0.00 | 0.00 | 0.00 | 21 | 1018.6 |
| 20260508050042 | 54 | 355 | 1.0 | 5.0 | 0.00 | 0.00 | 0.00 | 21 | 1018.6 |
| 20260508044537 | 55 | 41 | 0.0 | 5.0 | 0.00 | 0.00 | 0.00 | 20 | 1018.7 |
| 20260508043053 | 56 | 0 | 0.0 | 4.0 | 0.00 | 0.00 | 0.00 | 18 | 1018.7 |
| 20260508041549 | 58 | 0 | 0.0 | 2.0 | 0.00 | 0.00 | 0.00 | 17 | 1018.6 |
| 20260508040041 | 60 | 0 | 0.0 | 2.0 | 0.00 | 0.00 | 0.00 | 16 | 1018.7 |
| 20260508034545 | 62 | 0 | 1.0 | 4.0 | 0.00 | 0.00 | 0.00 | 14 | 1018.6 |
| 20260508033044 | 62 | 40 | 0.0 | 4.0 | 0.00 | 0.00 | 0.00 | 14 | 1018.4 |
| 20260508031541 | 63 | 0 | 0.0 | 4.0 | 0.00 | 0.00 | 0.00 | 13 | 1018.1 |
| 20260508030043 | 64 | 0 | 0.0 | 3.0 | 0.00 | 0.00 | 0.00 | 12 | 1018.0 |
| 20260508024540 | 65 | 74 | 1.0 | 5.0 | 0.00 | 0.00 | 0.00 | 12 | 1017.7 |
| 20260508023043 | 64 | 265 | 1.0 | 5.0 | 0.00 | 0.00 | 0.00 | 12 | 1017.5 |
| 20260508021546 | 65 | 0 | 0.0 | 0.0 | 0.00 | 0.00 | 0.00 | 12 | 1017.3 |
| 20260508020047 | 66 | 258 | 0.0 | 7.0 | 0.00 | 0.00 | 0.00 | 11 | 1017.1 |
| 20260508014549 | 68 | 0 | 1.0 | 7.0 | 0.00 | 0.00 | 0.00 | 10 | 1016.9 |
| 20260508013052 | 69 | 253 | 2.0 | 12.0 | 0.00 | 0.00 | 0.00 | 9 | 1016.8 |
| 20260508011544 | 71 | 258 | 4.0 | 8.0 | 0.00 | 0.00 | 0.00 | 9 | 1016.6 |
| 20260508010040 | 72 | 263 | 5.0 | 12.0 | 0.00 | 0.00 | 0.00 | 9 | 1016.6 |
| 20260508004540 | 73 | 276 | 5.0 | 12.0 | 0.00 | 0.00 | 0.00 | 9 | 1016.5 |
| 20260508003040 | 74 | 230 | 5.0 | 15.0 | 0.00 | 0.00 | 0.00 | 8 | 1016.4 |
| 20260508001739 | 74 | 252 | 5.0 | 15.0 | 0.00 | 0.00 | 0.00 | 8 | 1016.3 |
| 20260508000047 | 75 | 300 | 3.0 | 12.0 | 0.00 | 0.00 | 0.00 | 9 | 1016.3 |
| 20260507234540 | 76 | 256 | 5.0 | 12.0 | 0.00 | 0.00 | 0.00 | 8 | 1016.5 |
| 20260507233043 | 76 | 323 | 5.0 | 11.0 | 0.00 | 0.00 | 0.00 | 8 | 1016.4 |
| 20260507231543 | 76 | 305 | 6.0 | 13.0 | 0.00 | 0.00 | 0.00 | 9 | 1016.5 |
| 20260507230041 | 76 | 238 | 5.0 | 15.0 | 0.00 | 0.00 | 0.00 | 9 | 1016.6 |
| 20260507224543 | 76 | 254 | 4.0 | 15.0 | 0.00 | 0.00 | 0.00 | 9 | 1016.8 |
| 20260507223043 | 76 | 288 | 7.0 | 19.0 | 0.00 | 0.00 | 0.00 | 8 | 1016.6 |
| 20260507221541 | 76 | 0 | 6.0 | 14.0 | 0.00 | 0.00 | 0.00 | 9 | 1016.8 |
| 20260507220044 | 76 | 178 | 6.0 | 16.0 | 0.00 | 0.00 | 0.00 | 9 | 1016.8 |
| 20260507214544 | 76 | 213 | 3.0 | 13.0 | 0.00 | 0.00 | 0.00 | 10 | 1017.0 |
| 20260507213040 | 76 | 281 | 6.0 | 14.0 | 0.00 | 0.00 | 0.00 | 10 | 1017.3 |
| 20260507211543 | 76 | 274 | 5.0 | 14.0 | 0.00 | 0.00 | 0.00 | 11 | 1017.6 |
| 20260507210043 | 75 | 281 | 4.0 | 14.0 | 0.00 | 0.00 | 0.00 | 11 | 1017.9 |
| 20260507204544 | 75 | 299 | 5.0 | 13.0 | 0.00 | 0.00 | 0.00 | 11 | 1018.1 |
| 20260507203039 | 75 | 212 | 4.0 | 17.0 | 0.00 | 0.00 | 0.00 | 11 | 1018.3 |
| 20260507201553 | 74 | 269 | 2.0 | 8.0 | 0.00 | 0.00 | 0.00 | 13 | 1018.7 |
| 20260507200040 | 74 | 288 | 1.0 | 7.0 | 0.00 | 0.00 | 0.00 | 15 | 1018.7 |
| 20260507194548 | 73 | 175 | 3.0 | 12.0 | 0.00 | 0.00 | 0.00 | 15 | 1019.1 |
| 20260507193040 | 71 | 0 | 5.0 | 13.0 | 0.00 | 0.00 | 0.00 | 16 | 1019.4 |
| 20260507191539 | 70 | 186 | 6.0 | 11.0 | 0.00 | 0.00 | 0.00 | 18 | 1019.7 |
| 20260507190047 | 68 | 113 | 4.0 | 13.0 | 0.00 | 0.00 | 0.00 | 20 | 1020.1 |
| 20260507184540 | 67 | 185 | 4.0 | 9.0 | 0.00 | 0.00 | 0.00 | 20 | 1020.3 |
| 20260507183043 | 67 | 154 | 3.0 | 9.0 | 0.00 | 0.00 | 0.00 | 21 | 1020.6 |
| 20260507181540 | 66 | 145 | 6.0 | 12.0 | 0.00 | 0.00 | 0.00 | 22 | 1020.8 |
| 20260507180039 | 66 | 99 | 2.0 | 10.0 | 0.00 | 0.00 | 0.00 | 23 | 1021.3 |
| 20260507174544 | 65 | 177 | 1.0 | 9.0 | 0.00 | 0.00 | 0.00 | 25 | 1021.5 |
| 20260507173040 | 64 | 180 | 2.0 | 7.0 | 0.00 | 0.00 | 0.00 | 23 | 1021.9 |
| 20260507171541 | 61 | 155 | 1.0 | 9.0 | 0.00 | 0.00 | 0.00 | 25 | 1022.3 |
| 20260507170046 | 60 | 195 | 3.0 | 7.0 | 0.00 | 0.00 | 0.00 | 27 | 1022.4 |
| 20260507164540 | 58 | 168 | 4.0 | 7.0 | 0.00 | 0.00 | 0.00 | 28 | 1022.5 |
| 20260507163041 | 57 | 220 | 2.0 | 8.0 | 0.00 | 0.00 | 0.00 | 31 | 1022.7 |
| 20260507161546 | 55 | 125 | 3.0 | 10.0 | 0.00 | 0.00 | 0.00 | 32 | 1022.9 |
| 20260507160043 | 54 | 186 | 4.0 | 10.0 | 0.00 | 0.00 | 0.00 | 33 | 1023.1 |
| 20260507154542 | 54 | 186 | 5.0 | 10.0 | 0.00 | 0.00 | 0.00 | 32 | 1023.2 |
| 20260507153042 | 53 | 175 | 3.0 | 8.0 | 0.00 | 0.00 | 0.00 | 33 | 1023.3 |
| 20260507151544 | 53 | 170 | 3.0 | 6.0 | 0.00 | 0.00 | 0.00 | 33 | 1023.3 |
| 20260507150043 | 53 | 320 | 0.0 | 2.0 | 0.00 | 0.00 | 0.00 | 33 | 1023.2 |
| 20260507144539 | 51 | 0 | 0.0 | 3.0 | 0.00 | 0.00 | 0.00 | 34 | 1023.3 |
| 20260507143045 | 49 | 30 | 0.0 | 5.0 | 0.00 | 0.00 | 0.00 | 37 | 1023.6 |
| 20260507141538 | 47 | 35 | 2.0 | 8.0 | 0.00 | 0.00 | 0.00 | 38 | 1023.8 |
| 20260507140034 | 45 | 346 | 1.0 | 5.0 | 0.00 | 0.00 | 0.00 | 40 | 1023.8 |
| 20260507134543 | 43 | 336 | 1.0 | 6.0 | 0.00 | 0.00 | 0.00 | 42 | 1024.0 |
| 20260507133044 | 41 | 50 | 0.0 | 5.0 | 0.00 | 0.00 | 0.00 | 44 | 1024.0 |
| 20260507131553 | 39 | 0 | 0.0 | 4.0 | 0.00 | 0.00 | 0.00 | 47 | 1023.9 |
| 20260507130040 | 37 | 333 | 1.0 | 5.0 | 0.00 | 0.00 | 0.00 | 50 | 1023.9 |
| 20260507124535 | 36 | 320 | 1.0 | 5.0 | 0.00 | 0.00 | 0.00 | 50 | 1023.8 |
| 20260507123041 | 36 | 9 | 0.0 | 6.0 | 0.00 | 0.00 | 0.00 | 51 | 1023.6 |
| 20260507121541 | 36 | 24 | 0.0 | 5.0 | 0.00 | 0.00 | 0.00 | 51 | 1023.7 |
| 20260507120043 | 36 | 312 | 1.0 | 6.0 | 0.00 | 0.00 | 0.00 | 51 | 1023.6 |
| 20260507114558 | 36 | 329 | 1.0 | 5.0 | 0.00 | 0.00 | 0.00 | 51 | 1023.8 |
| 20260507113045 | 36 | 313 | 1.0 | 5.0 | 0.00 | 0.00 | 0.00 | 50 | 1024.0 |
| 20260507111542 | 37 | 0 | 0.0 | 4.0 | 0.00 | 0.00 | 0.00 | 50 | 1024.0 |
| 20260507110041 | 37 | 319 | 1.0 | 5.0 | 0.00 | 0.00 | 0.00 | 49 | 1023.9 |
| 20260507104540 | 38 | 327 | 1.0 | 3.0 | 0.00 | 0.00 | 0.00 | 48 | 1024.0 |
| 20260507103035 | 38 | 0 | 0.0 | 4.0 | 0.00 | 0.00 | 0.00 | 48 | 1023.9 |
| 20260507101543 | 38 | 0 | 0.0 | 3.0 | 0.00 | 0.00 | 0.00 | 47 | 1023.9 |
| 20260507100045 | 38 | 22 | 0.0 | 4.0 | 0.00 | 0.00 | 0.00 | 47 | 1023.8 |
| 20260507094541 | 39 | 321 | 0.0 | 4.0 | 0.00 | 0.00 | 0.00 | 46 | 1023.7 |
| 20260507093048 | 39 | 62 | 0.0 | 4.0 | 0.00 | 0.00 | 0.00 | 46 | 1023.6 |
| 20260507091535 | 39 | 0 | 0.0 | 5.0 | 0.00 | 0.00 | 0.00 | 46 | 1023.4 |
| 20260507090042 | 40 | 0 | 1.0 | 5.0 | 0.00 | 0.00 | 0.00 | 46 | 1023.3 |
| 20260507084539 | 40 | 71 | 0.0 | 4.0 | 0.00 | 0.00 | 0.00 | 45 | 1023.1 |
| 20260507083041 | 40 | 341 | 2.0 | 5.0 | 0.00 | 0.00 | 0.00 | 44 | 1023.2 |
| 20260507081547 | 40 | 0 | 1.0 | 4.0 | 0.00 | 0.00 | 0.00 | 45 | 1022.9 |
| 20260507080039 | 40 | 28 | 0.0 | 7.0 | 0.00 | 0.00 | 0.00 | 45 | 1022.9 |
| 20260507074556 | 40 | 319 | 0.0 | 3.0 | 0.00 | 0.00 | 0.00 | 45 | 1022.8 |
| 20260507073043 | 41 | 0 | 0.0 | 5.0 | 0.00 | 0.00 | 0.00 | 44 | 1022.9 |
| 20260507071540 | 41 | 319 | 0.0 | 2.0 | 0.00 | 0.00 | 0.00 | 44 | 1022.8 |
| 20260507070041 | 41 | 313 | 2.0 | 5.0 | 0.00 | 0.00 | 0.00 | 44 | 1022.7 |
| 20260507064540 | 42 | 333 | 0.0 | 3.0 | 0.00 | 0.00 | 0.00 | 43 | 1022.7 |
| 20260507063039 | 42 | 316 | 1.0 | 3.0 | 0.00 | 0.00 | 0.00 | 43 | 1022.8 |
| 20260507061537 | 42 | 0 | 0.0 | 3.0 | 0.00 | 0.00 | 0.00 | 44 | 1022.7 |
| 20260507060040 | 42 | 0 | 0.0 | 2.0 | 0.00 | 0.00 | 0.00 | 43 | 1022.5 |
| 20260507054552 | 43 | 0 | 0.0 | 2.0 | 0.00 | 0.00 | 0.00 | 42 | 1022.3 |